createdAt,value
2022-10-22T00:03:50.955Z,99369.88
2022-10-22T00:07:52.552Z,99358.41
2022-10-22T00:11:54.306Z,99352.19
2022-10-22T00:15:56.680Z,99353.81
2022-10-22T00:19:58.832Z,99352.19
2022-10-22T00:24:00.536Z,99360.44
2022-10-22T00:28:03.036Z,99346.19
2022-10-22T00:32:06.125Z,99339.66
2022-10-22T00:36:08.458Z,99346.03
2022-10-22T00:40:11.158Z,99355.56
2022-10-22T00:44:50.385Z,99365.31
2022-10-22T00:48:53.415Z,99358.94
2022-10-22T00:52:56.350Z,99359.03
2022-10-22T00:56:57.990Z,99362.19
2022-10-22T01:00:59.707Z,99360.09
2022-10-22T01:05:01.286Z,99372.72
2022-10-22T01:09:24.864Z,99370.81
2022-10-22T01:13:41.632Z,99375.31
2022-10-22T01:17:50.607Z,99372.50
2022-10-22T01:21:59.587Z,99371.69
2022-10-22T01:26:17.481Z,99374.50
2022-10-22T01:30:19.615Z,99369.56
2022-10-22T01:34:23.716Z,99368.56
2022-10-22T01:38:26.432Z,99375.00
2022-10-22T01:42:28.169Z,99370.91
2022-10-22T01:46:29.874Z,99372.06
2022-10-22T01:50:37.033Z,99376.22
2022-10-22T01:54:46.809Z,99374.06
2022-10-22T01:59:05.322Z,99389.41
2022-10-22T02:03:18.618Z,99393.59
2022-10-22T02:07:29.112Z,99383.34
2022-10-22T02:11:30.890Z,99387.53
2022-10-22T02:15:35.475Z,99384.75
2022-10-22T02:20:06.968Z,99393.38
2022-10-22T02:24:08.942Z,99388.91
2022-10-22T02:28:22.433Z,99386.16
2022-10-22T02:32:28.439Z,99391.44
2022-10-22T02:36:30.540Z,99375.94
2022-10-22T02:40:32.756Z,99378.47
2022-10-22T02:44:34.313Z,99371.81
2022-10-22T02:48:35.992Z,99361.28
2022-10-22T02:52:38.917Z,99367.09
2022-10-22T02:56:40.770Z,99362.69
2022-10-22T03:00:42.560Z,99361.03
2022-10-22T03:04:44.241Z,99372.13
2022-10-22T03:08:45.930Z,99386.00
2022-10-22T03:12:48.331Z,99380.97
2022-10-22T03:16:49.937Z,99376.00
2022-10-22T03:21:06.329Z,99368.81
2022-10-22T03:25:15.910Z,99371.56
2022-10-22T03:29:17.835Z,99381.84
2022-10-22T03:33:19.449Z,99392.69
2022-10-22T03:37:23.012Z,99398.19
2022-10-22T03:41:24.465Z,99400.69
2022-10-22T03:45:26.131Z,99422.88
2022-10-22T03:49:27.708Z,99432.84
2022-10-22T03:53:29.653Z,99435.34
2022-10-22T03:57:31.293Z,99465.31
2022-10-22T04:01:33.012Z,99467.81
2022-10-22T04:05:34.631Z,99454.75
2022-10-22T04:09:36.317Z,99458.09
2022-10-22T04:13:38.528Z,99473.03
2022-10-22T04:17:40.383Z,99488.28
2022-10-22T04:21:42.294Z,99494.91
2022-10-22T04:25:43.849Z,99496.28
2022-10-22T04:29:45.375Z,99498.78
2022-10-22T04:33:47.311Z,99514.88
2022-10-22T04:37:49.598Z,99504.84
2022-10-22T04:41:51.179Z,99509.31
2022-10-22T04:45:52.726Z,99513.75
2022-10-22T04:49:54.311Z,99517.97
2022-10-22T04:53:55.900Z,99522.41
2022-10-22T04:57:57.522Z,99511.06
2022-10-22T05:01:59.025Z,99508.03
2022-10-22T05:06:02.005Z,99507.81
2022-10-22T05:10:03.954Z,99517.00
2022-10-22T05:14:06.518Z,99518.97
2022-10-22T05:18:08.109Z,99527.31
2022-10-22T05:22:09.778Z,99533.13
2022-10-22T05:26:13.046Z,99519.25
2022-10-22T05:30:14.696Z,99535.34
2022-10-22T05:34:16.913Z,99542.53
2022-10-22T05:38:18.965Z,99548.59
2022-10-22T05:42:20.600Z,99548.59
2022-10-22T05:46:23.492Z,99551.88
2022-10-22T05:50:24.969Z,99565.75
2022-10-22T05:54:26.693Z,99566.81
2022-10-22T05:58:28.295Z,99575.97
2022-10-22T06:02:29.892Z,99585.09
2022-10-22T06:06:37.374Z,99590.06
2022-10-22T06:10:42.600Z,99583.44
2022-10-22T06:14:44.669Z,99584.25
2022-10-22T06:18:46.302Z,99594.22
2022-10-22T06:22:48.381Z,99600.59
2022-10-22T06:26:51.409Z,99614.53
2022-10-22T06:30:53.137Z,99626.75
2022-10-22T06:34:54.681Z,99641.69
2022-10-22T06:38:56.675Z,99642.22
2022-10-22T06:43:00.133Z,99651.66
2022-10-22T06:47:02.326Z,99656.66
2022-10-22T06:51:05.946Z,99656.66
2022-10-22T06:55:07.762Z,99662.25
2022-10-22T06:59:09.330Z,99665.06
2022-10-22T07:03:14.278Z,99679.78
2022-10-22T07:07:16.294Z,99678.44
2022-10-22T07:11:20.935Z,99681.19
2022-10-22T07:15:22.459Z,99683.94
2022-10-22T07:19:23.995Z,99686.69
2022-10-22T07:23:26.283Z,99693.94
2022-10-22T07:27:28.668Z,99698.09
2022-10-22T07:31:30.943Z,99702.25
2022-10-22T07:35:32.835Z,99710.56
2022-10-22T07:39:34.560Z,99705.59
2022-10-22T07:43:36.088Z,99707.28
2022-10-22T07:47:37.688Z,99720.03
2022-10-22T07:51:39.418Z,99716.66
2022-10-22T07:55:40.964Z,99724.94
2022-10-22T07:59:42.547Z,99724.34
2022-10-22T08:03:44.483Z,99732.59
2022-10-22T08:07:46.166Z,99723.06
2022-10-22T08:11:47.774Z,99722.19
2022-10-22T08:15:51.460Z,99719.00
2022-10-22T08:19:56.582Z,99722.50
2022-10-22T08:23:58.717Z,99729.09
2022-10-22T08:28:00.361Z,99736.41
2022-10-22T08:32:02.940Z,99751.91
2022-10-22T08:36:05.660Z,99757.59
2022-10-22T08:40:07.720Z,99761.19
2022-10-22T08:44:24.716Z,99763.53
2022-10-22T08:48:44.361Z,99757.63
2022-10-22T08:52:53.715Z,99758.31
2022-10-22T08:57:15.046Z,99764.53
2022-10-22T09:01:37.952Z,99780.88
2022-10-22T09:10:13.401Z,99769.19
2022-10-22T09:14:20.240Z,99779.66
2022-10-22T09:18:41.997Z,99777.09
2022-10-22T09:22:56.135Z,99784.50
2022-10-22T09:26:57.913Z,99781.78
2022-10-22T09:30:59.539Z,99780.75
2022-10-22T09:35:01.265Z,99781.34
2022-10-22T09:39:04.296Z,99789.41
2022-10-22T09:43:05.901Z,99790.53
2022-10-22T09:47:42.590Z,99789.97
2022-10-22T09:51:56.325Z,99788.91
2022-10-22T09:56:00.722Z,99793.88
2022-10-22T10:00:02.277Z,99786.44
2022-10-22T10:04:14.948Z,99801.16
2022-10-22T10:08:17.771Z,99797.47
2022-10-22T10:12:22.296Z,99806.19
2022-10-22T10:16:49.778Z,99810.81
2022-10-22T10:21:06.191Z,99822.03
2022-10-22T10:25:35.951Z,99816.03
2022-10-22T10:30:00.888Z,99804.22
2022-10-22T10:34:17.604Z,99805.06
2022-10-22T10:38:48.634Z,99808.06
2022-10-22T10:43:01.908Z,99806.78
2022-10-22T10:47:31.913Z,99787.16
2022-10-22T10:51:57.842Z,99799.50
2022-10-22T10:56:21.824Z,99798.69
2022-10-22T11:00:24.026Z,99800.25
2022-10-22T11:04:47.176Z,99807.94
2022-10-22T11:09:07.262Z,99794.59
2022-10-22T11:13:17.020Z,99803.84
2022-10-22T11:17:21.684Z,99798.03
2022-10-22T11:21:34.330Z,99796.16
2022-10-22T11:25:44.077Z,99790.84
2022-10-22T11:29:52.399Z,99785.97
2022-10-22T11:34:04.943Z,99783.22
2022-10-22T11:38:16.196Z,99788.09
2022-10-22T11:42:34.439Z,99788.97
2022-10-22T11:46:38.999Z,99788.47
2022-10-22T11:50:43.418Z,99797.38
2022-10-22T11:54:44.980Z,99788.31
2022-10-22T11:58:50.860Z,99780.53
2022-10-22T12:03:06.290Z,99785.19
2022-10-22T12:07:32.439Z,99783.75
2022-10-22T12:11:49.459Z,99789.28
2022-10-22T12:15:58.925Z,99780.81
2022-10-22T12:20:12.742Z,99770.13
2022-10-22T12:24:17.143Z,99769.56
2022-10-22T12:28:19.092Z,99757.50
2022-10-22T12:32:21.805Z,99767.06
2022-10-22T12:36:26.152Z,99756.81
2022-10-22T12:40:30.557Z,99752.06
2022-10-22T12:44:33.170Z,99757.63
2022-10-22T12:48:40.196Z,99762.56
2022-10-22T12:52:42.556Z,99762.81
2022-10-22T12:56:47.143Z,99765.50
2022-10-22T13:00:49.397Z,99766.31
2022-10-22T13:05:15.939Z,99765.88
2022-10-22T13:09:22.514Z,99773.72
2022-10-22T13:13:45.695Z,99768.81
2022-10-22T13:17:49.014Z,99771.16
2022-10-22T13:21:50.543Z,99773.28
2022-10-22T13:26:12.433Z,99772.25
2022-10-22T13:30:33.913Z,99780.16
2022-10-22T13:34:36.395Z,99774.94
2022-10-22T13:38:37.971Z,99772.09
2022-10-22T13:42:40.184Z,99761.97
2022-10-22T13:46:43.437Z,99760.81
2022-10-22T13:50:47.152Z,99769.75
2022-10-22T13:54:48.722Z,99770.41
2022-10-22T13:58:50.627Z,99761.69
2022-10-22T14:02:58.213Z,99764.56
2022-10-22T14:07:03.977Z,99767.56
2022-10-22T14:11:06.777Z,99762.88
2022-10-22T14:15:11.163Z,99772.34
2022-10-22T14:19:18.060Z,99767.63
2022-10-22T14:23:22.194Z,99772.41
2022-10-22T14:27:23.718Z,99771.63
2022-10-22T14:31:25.934Z,99778.53
2022-10-22T14:35:27.789Z,99774.81
2022-10-22T14:39:29.527Z,99776.50
2022-10-22T14:43:31.431Z,99774.16
2022-10-22T14:47:33.250Z,99764.63
2022-10-22T14:51:34.806Z,99776.91
2022-10-22T14:55:36.558Z,99770.44
2022-10-22T14:59:38.157Z,99767.72
2022-10-22T15:03:40.024Z,99772.06
2022-10-22T15:07:42.624Z,99773.81
2022-10-22T15:11:44.507Z,99771.84
2022-10-22T15:15:46.042Z,99778.19
2022-10-22T15:19:47.604Z,99779.53
2022-10-22T15:23:50.714Z,99778.16
2022-10-22T15:27:54.865Z,99773.06
2022-10-22T15:32:01.262Z,99770.59
2022-10-22T15:36:14.450Z,99771.09
2022-10-22T15:40:16.104Z,99785.53
2022-10-22T15:44:20.377Z,99777.44
2022-10-22T15:48:21.918Z,99776.63
2022-10-22T15:52:23.535Z,99782.56
2022-10-22T15:56:29.355Z,99789.56
2022-10-22T16:00:34.415Z,99798.22
2022-10-22T16:04:36.018Z,99789.31
2022-10-22T16:08:38.489Z,99789.75
2022-10-22T16:12:41.524Z,99786.38
2022-10-22T16:16:50.303Z,99796.63
2022-10-22T16:20:51.887Z,99793.75
2022-10-22T16:24:53.531Z,99784.75
2022-10-22T16:28:56.321Z,99797.13
2022-10-22T16:32:57.865Z,99787.22
2022-10-22T16:36:59.760Z,99794.81
2022-10-22T16:41:21.851Z,99796.03
2022-10-22T16:45:23.430Z,99800.84
2022-10-22T16:49:24.970Z,99805.66
2022-10-22T16:53:26.571Z,99796.53
2022-10-22T16:57:28.860Z,99800.19
2022-10-22T17:01:30.746Z,99802.44
2022-10-22T17:05:35.618Z,99814.16
2022-10-22T17:09:37.215Z,99813.56
2022-10-22T17:13:41.193Z,99818.03
2022-10-22T17:17:43.109Z,99823.06
2022-10-22T17:21:44.707Z,99821.97
2022-10-22T17:25:46.303Z,99825.03
2022-10-22T17:29:47.881Z,99831.44
2022-10-22T17:33:51.806Z,99830.59
2022-10-22T17:37:53.390Z,99833.69
2022-10-22T17:41:54.947Z,99830.91
2022-10-22T17:46:07.469Z,99842.03
2022-10-22T17:50:09.742Z,99847.56
2022-10-22T17:54:12.847Z,99844.25
2022-10-22T17:58:14.450Z,99864.22
2022-10-22T18:02:17.993Z,99865.59
2022-10-22T18:06:21.410Z,99865.91
2022-10-22T18:10:25.320Z,99865.91
2022-10-22T18:14:26.864Z,99861.19
2022-10-22T18:18:28.818Z,99867.84
2022-10-22T18:22:33.348Z,99862.31
2022-10-22T18:26:34.909Z,99868.09
2022-10-22T18:30:38.420Z,99861.75
2022-10-22T18:34:40.727Z,99848.97
2022-10-22T18:38:42.439Z,99842.59
2022-10-22T18:42:45.023Z,99844.81
2022-10-22T18:46:46.818Z,99848.16
2022-10-22T18:50:57.607Z,99849.28
2022-10-22T18:54:59.365Z,99847.59
2022-10-22T18:59:00.926Z,99834.84
2022-10-22T19:03:03.366Z,99840.38
2022-10-22T19:07:05.535Z,99835.09
2022-10-22T19:11:12.769Z,99838.69
2022-10-22T19:15:14.379Z,99834.00
2022-10-22T19:19:19.267Z,99829.84
2022-10-22T19:23:20.960Z,99833.44
2022-10-22T19:27:22.635Z,99834.81
2022-10-22T19:31:26.153Z,99837.03
2022-10-22T19:35:27.793Z,99839.28
2022-10-22T19:39:29.402Z,99840.38
2022-10-22T19:43:30.943Z,99837.06
2022-10-22T19:47:32.531Z,99832.88
2022-10-22T19:51:34.542Z,99832.88
2022-10-22T19:55:36.135Z,99838.44
2022-10-22T19:59:37.698Z,99830.38
2022-10-22T20:03:40.307Z,99835.09
2022-10-22T20:07:42.227Z,99824.81
2022-10-22T20:11:44.391Z,99835.09
2022-10-22T20:15:50.003Z,99828.97
2022-10-22T20:19:51.510Z,99836.47
2022-10-22T20:23:54.250Z,99835.38
2022-10-22T20:27:55.973Z,99848.94
2022-10-22T20:31:57.546Z,99847.03
2022-10-22T20:36:01.554Z,99838.41
2022-10-22T20:40:03.362Z,99839.53
2022-10-22T20:44:05.635Z,99848.69
2022-10-22T20:48:07.676Z,99849.78
2022-10-22T20:52:09.513Z,99831.50
2022-10-22T20:56:12.518Z,99820.41
2022-10-22T21:00:14.513Z,99835.94
2022-10-22T21:04:17.495Z,99826.50
2022-10-22T21:08:18.981Z,99834.28
2022-10-22T21:12:20.654Z,99834.28
2022-10-22T21:16:22.925Z,99826.78
2022-10-22T21:20:24.993Z,99840.91
2022-10-22T21:24:26.916Z,99837.59
2022-10-22T21:32:51.772Z,99826.19
2022-10-22T21:36:53.407Z,99818.13
2022-10-22T21:40:55.020Z,99817.31
2022-10-22T21:44:56.703Z,99826.44
2022-10-22T21:49:02.034Z,99814.53
2022-10-22T21:53:03.718Z,99820.34
2022-10-22T21:57:05.593Z,99815.09
2022-10-22T22:01:07.410Z,99811.22
2022-10-22T22:05:09.584Z,99820.03
2022-10-22T22:09:11.285Z,99824.78
2022-10-22T22:13:12.870Z,99825.88
2022-10-22T22:17:16.511Z,99831.13
2022-10-22T22:21:20.741Z,99833.28
2022-10-22T22:25:22.307Z,99842.44
2022-10-22T22:29:24.608Z,99853.22
2022-10-22T22:33:27.129Z,99844.06
2022-10-22T22:37:28.689Z,99849.59
2022-10-22T22:41:30.399Z,99846.78
2022-10-22T22:45:32.094Z,99841.78
2022-10-22T22:49:35.504Z,99835.69
2022-10-22T22:53:37.092Z,99826.25
2022-10-22T22:57:38.699Z,99823.78
2022-10-22T23:01:40.561Z,99821.50
2022-10-22T23:05:42.607Z,99820.41
2022-10-22T23:09:44.293Z,99817.34
2022-10-22T23:13:46.048Z,99802.63
2022-10-22T23:17:47.692Z,99804.28
2022-10-22T23:21:52.670Z,99807.59
2022-10-22T23:25:55.980Z,99802.84
2022-10-22T23:29:58.299Z,99801.75
2022-10-22T23:34:00.231Z,99798.09
2022-10-22T23:38:01.938Z,99801.66
2022-10-22T23:42:03.770Z,99800.56
2022-10-22T23:46:07.335Z,99791.34
2022-10-22T23:50:09.029Z,99783.59
2022-10-22T23:54:16.406Z,99786.88
2022-10-22T23:58:18.106Z,99787.72
